Terminal Aerodrome Forecast
Issued by NWS

Home | Current Version | Previous Version | Text Only | Print | Product List | Glossary On
Versions: 1 2 3 4 5 6 7 8 9 10 11 12 13 14
000
FTUS43 KFGF 041100
TAFTVF
TAF
KTVF 041120Z 0412/0512 29008KT P6SM SCT015
      TEMPO 0412/0415 BKN015
     FM041800 33013KT P6SM BKN040
     FM050000 29007KT P6SM SKC
      AMD LTD TO CLD VIS AND WIND=

USA.gov is the U.S. government's official web portal to all federal, state and local government web resources and services.